createdAt,value
2023-05-03T00:00:19.677Z,0.93
2023-05-03T00:02:48.190Z,1.23
2023-05-03T00:05:17.731Z,1.10
2023-05-03T00:07:47.352Z,1.65
2023-05-03T00:10:19.493Z,1.40
2023-05-03T00:12:48.442Z,1.80
2023-05-03T00:15:17.191Z,1.40
2023-05-03T00:17:46.126Z,1.27
2023-05-03T00:20:15.413Z,1.60
2023-05-03T00:22:43.766Z,2.08
2023-05-03T00:25:11.959Z,2.05
2023-05-03T00:27:40.238Z,1.90
2023-05-03T00:30:10.073Z,2.40
2023-05-03T00:32:38.514Z,2.50
2023-05-03T00:35:07.384Z,2.28
2023-05-03T00:37:36.622Z,2.28
2023-05-03T00:40:05.475Z,2.80
2023-05-03T00:42:36.773Z,3.15
2023-05-03T00:45:06.829Z,3.72
2023-05-03T00:47:36.307Z,3.88
2023-05-03T00:50:06.414Z,3.63
2023-05-03T00:52:35.605Z,3.83
2023-05-03T00:55:04.061Z,4.30
2023-05-03T00:57:32.287Z,4.15
2023-05-03T01:00:01.407Z,2.97
2023-05-03T01:02:30.706Z,2.97
2023-05-03T01:04:59.194Z,3.70
2023-05-03T01:07:50.758Z,3.60
2023-05-03T01:10:29.800Z,3.55
2023-05-03T01:13:12.056Z,2.65
2023-05-03T01:16:06.681Z,2.97
2023-05-03T01:18:49.871Z,3.58
2023-05-03T01:21:19.234Z,3.33
2023-05-03T01:24:03.857Z,4.15
2023-05-03T01:26:33.455Z,4.15
2023-05-03T01:29:01.745Z,3.72
2023-05-03T01:31:44.655Z,3.67
2023-05-03T01:34:38.076Z,3.60
2023-05-03T01:37:11.136Z,4.03
2023-05-03T01:40:07.227Z,3.78
2023-05-03T01:42:38.667Z,3.65
2023-05-03T01:45:07.422Z,3.58
2023-05-03T01:47:36.057Z,3.83
2023-05-03T01:50:04.688Z,3.53
2023-05-03T01:52:33.493Z,3.95
2023-05-03T01:55:01.782Z,4.25
2023-05-03T01:57:30.015Z,4.05
2023-05-03T01:59:58.652Z,5.22
2023-05-03T02:02:26.890Z,4.55
2023-05-03T02:04:55.260Z,4.40
2023-05-03T02:07:23.585Z,5.28
2023-05-03T02:09:51.807Z,5.50
2023-05-03T02:12:20.060Z,5.75
2023-05-03T02:14:48.225Z,6.68
2023-05-03T02:17:19.095Z,7.13
2023-05-03T02:19:47.476Z,7.30
2023-05-03T02:22:15.847Z,7.93
2023-05-03T02:24:44.231Z,8.27
2023-05-03T02:27:12.422Z,8.20
2023-05-03T02:29:40.910Z,8.52
2023-05-03T02:32:09.390Z,8.40
2023-05-03T02:34:39.135Z,8.80
2023-05-03T02:37:09.427Z,9.07
2023-05-03T02:39:37.683Z,8.40
2023-05-03T02:42:07.797Z,8.55
2023-05-03T02:44:36.130Z,9.10
2023-05-03T02:47:04.443Z,9.57
2023-05-03T02:49:32.750Z,8.65
2023-05-03T02:52:01.070Z,9.13
2023-05-03T02:54:29.543Z,9.48
2023-05-03T02:56:59.893Z,10.25
2023-05-03T02:59:28.590Z,10.98
2023-05-03T03:01:57.793Z,11.32
2023-05-03T03:04:26.532Z,10.23
2023-05-03T03:06:56.727Z,11.02
2023-05-03T03:09:25.185Z,11.27
2023-05-03T03:11:53.864Z,11.80
2023-05-03T03:14:23.430Z,11.30
2023-05-03T03:16:52.856Z,11.20
2023-05-03T03:19:21.233Z,12.02
2023-05-03T03:21:49.461Z,12.77
2023-05-03T03:24:17.711Z,11.20
2023-05-03T03:26:46.014Z,11.48
2023-05-03T03:29:14.240Z,11.38
2023-05-03T03:31:45.104Z,11.45
2023-05-03T03:34:14.258Z,10.85
2023-05-03T03:36:42.494Z,11.10
2023-05-03T03:39:11.813Z,11.90
2023-05-03T03:41:41.465Z,11.52
2023-05-03T03:44:09.716Z,12.27
2023-05-03T03:46:39.143Z,11.15
2023-05-03T03:49:08.227Z,11.20
2023-05-03T03:51:37.565Z,11.32
2023-05-03T03:54:06.469Z,10.70
2023-05-03T03:56:39.140Z,10.73
2023-05-03T03:59:11.180Z,11.77
2023-05-03T04:01:39.822Z,11.48
2023-05-03T04:04:09.182Z,10.90
2023-05-03T04:06:37.845Z,10.23
2023-05-03T04:09:10.471Z,11.10
2023-05-03T04:11:39.362Z,11.50
2023-05-03T04:14:08.916Z,12.05
2023-05-03T04:16:37.938Z,11.55
2023-05-03T04:19:07.747Z,11.38
2023-05-03T04:21:39.320Z,10.93
2023-05-03T04:24:08.073Z,11.77
2023-05-03T04:26:36.624Z,11.57
2023-05-03T04:29:12.555Z,11.77
2023-05-03T04:31:42.046Z,12.23
2023-05-03T04:34:10.760Z,11.35
2023-05-03T04:36:40.141Z,12.48
2023-05-03T04:39:12.129Z,11.60
2023-05-03T04:41:42.249Z,12.23
2023-05-03T04:44:11.204Z,11.30
2023-05-03T04:46:40.204Z,11.18
2023-05-03T04:49:09.536Z,11.60
2023-05-03T04:51:37.905Z,11.50
2023-05-03T04:54:07.179Z,10.27
2023-05-03T04:56:35.831Z,11.82
2023-05-03T04:59:12.599Z,12.23
2023-05-03T05:01:41.468Z,11.63
2023-05-03T05:04:10.562Z,12.32
2023-05-03T05:06:45.102Z,12.25
2023-05-03T05:09:27.984Z,11.55
2023-05-03T05:11:59.182Z,11.25
2023-05-03T05:14:33.788Z,11.75
2023-05-03T05:17:02.840Z,11.85
2023-05-03T05:19:31.138Z,11.98
2023-05-03T05:21:59.418Z,12.32
2023-05-03T05:24:37.957Z,12.00
2023-05-03T05:27:07.188Z,11.18
2023-05-03T05:29:36.138Z,12.88
2023-05-03T05:32:05.497Z,12.40
2023-05-03T05:34:43.595Z,12.68
2023-05-03T05:37:16.414Z,12.30
2023-05-03T05:39:46.503Z,11.88
2023-05-03T05:42:16.223Z,12.30
2023-05-03T05:44:44.550Z,12.43
2023-05-03T05:47:12.933Z,12.73
2023-05-03T05:49:42.693Z,12.55
2023-05-03T05:52:12.725Z,12.25
2023-05-03T05:54:41.587Z,12.88
2023-05-03T05:57:12.573Z,14.02
2023-05-03T05:59:41.253Z,13.00
2023-05-03T06:02:19.024Z,13.85
2023-05-03T06:04:48.568Z,13.82
2023-05-03T06:07:16.958Z,13.50
2023-05-03T06:09:45.239Z,13.95
2023-05-03T06:12:14.492Z,13.68
2023-05-03T06:15:01.048Z,13.32
2023-05-03T06:17:33.632Z,14.82
2023-05-03T06:20:02.414Z,13.50
2023-05-03T06:22:31.097Z,12.48
2023-05-03T06:25:00.006Z,12.82
2023-05-03T06:27:28.962Z,13.35
2023-05-03T06:29:58.213Z,14.23
2023-05-03T06:32:26.895Z,13.52
2023-05-03T06:34:55.934Z,13.80
2023-05-03T06:37:24.212Z,13.32
2023-05-03T06:39:52.658Z,13.48
2023-05-03T06:42:21.057Z,13.85
2023-05-03T06:44:49.510Z,13.65
2023-05-03T06:47:20.299Z,13.50
2023-05-03T06:49:49.121Z,12.68
2023-05-03T06:52:17.365Z,14.20
2023-05-03T06:54:45.675Z,13.68
2023-05-03T06:57:13.916Z,13.50
2023-05-03T06:59:42.233Z,12.85
2023-05-03T07:02:10.688Z,12.18
2023-05-03T07:04:39.762Z,13.18
2023-05-03T07:07:08.151Z,13.65
2023-05-03T07:12:10.466Z,13.07
2023-05-03T07:14:40.659Z,11.98
2023-05-03T07:17:09.987Z,12.52
2023-05-03T07:19:38.605Z,12.73
2023-05-03T07:22:07.214Z,12.65
2023-05-03T07:24:35.617Z,12.43
2023-05-03T07:27:03.937Z,12.57
2023-05-03T07:29:32.313Z,13.18
2023-05-03T07:32:00.869Z,12.95
2023-05-03T07:34:29.299Z,12.15
2023-05-03T07:36:57.545Z,13.32
2023-05-03T07:39:25.960Z,12.75
2023-05-03T07:41:54.255Z,12.80
2023-05-03T07:44:22.502Z,13.70
2023-05-03T07:46:50.759Z,11.88
2023-05-03T07:49:18.982Z,13.07
2023-05-03T07:51:47.384Z,12.73
2023-05-03T07:54:15.637Z,14.13
2023-05-03T07:56:43.850Z,14.82
2023-05-03T07:59:12.088Z,15.88
2023-05-03T08:01:40.415Z,16.90
2023-05-03T08:04:08.751Z,16.17
2023-05-03T08:06:38.691Z,15.02
2023-05-03T08:09:07.099Z,16.05
2023-05-03T08:11:35.656Z,14.63
2023-05-03T08:14:03.849Z,15.40
2023-05-03T08:16:32.138Z,15.18
2023-05-03T08:19:00.637Z,15.35
2023-05-03T08:21:28.897Z,15.43
2023-05-03T08:23:57.086Z,13.65
2023-05-03T08:26:26.125Z,12.68
2023-05-03T08:28:54.777Z,13.82
2023-05-03T08:31:23.139Z,12.45
2023-05-03T08:33:51.826Z,10.48
2023-05-03T08:36:20.071Z,10.80
2023-05-03T08:38:48.423Z,9.93
2023-05-03T08:41:30.795Z,5.90
2023-05-03T08:44:01.073Z,4.90
2023-05-03T08:46:29.696Z,3.67
2023-05-03T08:48:59.071Z,4.35
2023-05-03T08:51:28.338Z,3.60
2023-05-03T08:53:56.649Z,3.55
2023-05-03T08:56:33.732Z,4.50
2023-05-03T08:59:07.947Z,3.50
2023-05-03T09:01:37.847Z,1.15
2023-05-03T09:04:07.498Z,1.50
2023-05-03T09:06:36.779Z,1.60
2023-05-03T09:09:09.832Z,1.10
2023-05-03T09:11:41.137Z,1.90
2023-05-03T09:14:21.275Z,1.88
2023-05-03T09:16:49.603Z,2.30
2023-05-03T09:19:18.000Z,2.35
2023-05-03T09:21:47.633Z,2.05
2023-05-03T09:24:20.243Z,2.22
2023-05-03T09:26:53.146Z,2.00
2023-05-03T09:29:31.146Z,1.88
2023-05-03T09:32:05.690Z,2.40
2023-05-03T09:34:35.839Z,2.58
2023-05-03T09:37:04.370Z,2.47
2023-05-03T09:39:32.922Z,2.22
2023-05-03T09:42:17.672Z,1.60
2023-05-03T09:44:53.981Z,1.25
2023-05-03T09:47:24.740Z,0.95
2023-05-03T09:49:53.018Z,1.38
2023-05-03T09:52:23.401Z,1.73
2023-05-03T09:54:54.084Z,1.33
2023-05-03T09:57:23.205Z,1.30
2023-05-03T09:59:51.945Z,1.40
2023-05-03T10:02:21.952Z,1.10
2023-05-03T10:04:53.903Z,1.20
2023-05-03T10:07:25.769Z,1.40
2023-05-03T10:09:56.880Z,1.30
2023-05-03T10:12:27.388Z,1.80
2023-05-03T10:14:57.187Z,1.50
2023-05-03T10:17:46.602Z,2.83
2023-05-03T10:20:45.709Z,2.55
2023-05-03T10:23:14.695Z,2.20
2023-05-03T10:26:15.988Z,2.45
2023-05-03T10:28:45.912Z,1.80
2023-05-03T10:31:43.933Z,1.67
2023-05-03T10:34:25.905Z,2.03
2023-05-03T10:36:54.560Z,1.30
2023-05-03T10:39:23.287Z,1.13
2023-05-03T10:41:59.883Z,1.25
2023-05-03T10:44:49.973Z,0.95
2023-05-03T10:47:23.479Z,1.27
2023-05-03T10:50:16.595Z,1.00
2023-05-03T10:52:45.240Z,1.02
2023-05-03T10:55:17.213Z,1.10
2023-05-03T10:57:46.924Z,0.80
2023-05-03T11:00:33.014Z,0.90
2023-05-03T11:03:19.119Z,0.80
2023-05-03T11:05:49.356Z,1.08
2023-05-03T11:08:20.690Z,1.10
2023-05-03T11:10:57.057Z,1.20
2023-05-03T11:13:25.734Z,1.05
2023-05-03T11:15:57.213Z,1.25
2023-05-03T11:18:30.342Z,1.33
2023-05-03T11:20:58.612Z,1.38
2023-05-03T11:23:30.181Z,1.30
2023-05-03T11:25:58.587Z,1.30
2023-05-03T11:28:27.331Z,1.70
2023-05-03T11:30:55.600Z,3.05
2023-05-03T11:33:24.016Z,3.25
2023-05-03T11:35:56.650Z,2.00
2023-05-03T11:38:24.907Z,2.73
2023-05-03T11:40:53.139Z,1.98
2023-05-03T11:43:21.334Z,2.20
2023-05-03T11:45:52.463Z,1.90
2023-05-03T11:48:21.183Z,1.90
2023-05-03T11:50:56.855Z,1.90
2023-05-03T11:53:26.487Z,2.15
2023-05-03T11:55:55.997Z,1.65
2023-05-03T11:58:26.708Z,1.70
2023-05-03T12:00:57.278Z,1.30
2023-05-03T12:03:31.732Z,1.17
2023-05-03T12:06:02.693Z,1.23
2023-05-03T12:08:36.453Z,1.23
2023-05-03T12:11:09.350Z,1.25
2023-05-03T12:13:40.504Z,1.58
2023-05-03T12:16:13.597Z,1.17
2023-05-03T12:18:50.862Z,1.30
2023-05-03T12:23:55.876Z,1.30
2023-05-03T12:26:25.798Z,1.33
2023-05-03T12:28:56.834Z,1.17
2023-05-03T12:31:28.928Z,0.90
2023-05-03T12:36:31.652Z,1.52
2023-05-03T12:39:02.115Z,1.27
2023-05-03T12:44:02.995Z,1.80
2023-05-03T12:46:33.742Z,1.40
2023-05-03T12:49:06.772Z,1.42
2023-05-03T12:51:36.153Z,1.38
2023-05-03T12:54:10.144Z,1.20
2023-05-03T12:56:40.860Z,1.25
2023-05-03T13:06:45.241Z,1.85
2023-05-03T13:09:20.702Z,1.45
2023-05-03T13:11:52.441Z,1.70
2023-05-03T13:14:22.053Z,1.42
2023-05-03T13:16:51.531Z,1.23
2023-05-03T13:19:20.052Z,1.30
2023-05-03T13:21:49.537Z,1.40
2023-05-03T13:24:17.859Z,1.60
2023-05-03T13:26:47.093Z,1.50
2023-05-03T13:29:15.475Z,1.60
2023-05-03T13:31:43.832Z,1.75
2023-05-03T13:34:12.113Z,1.35
2023-05-03T13:36:40.561Z,1.70
2023-05-03T13:39:10.547Z,1.63
2023-05-03T13:41:42.877Z,1.75
2023-05-03T13:44:11.796Z,1.48
2023-05-03T13:46:41.450Z,1.70
2023-05-03T13:49:10.805Z,1.75
2023-05-03T13:51:39.212Z,1.63
2023-05-03T13:54:07.937Z,1.40
2023-05-03T13:56:36.620Z,1.40
2023-05-03T13:59:08.799Z,1.42
2023-05-03T14:01:37.994Z,1.40
2023-05-03T14:04:06.876Z,1.40
2023-05-03T14:06:35.272Z,1.85
2023-05-03T14:09:03.928Z,1.70
2023-05-03T14:11:32.302Z,1.60
2023-05-03T14:14:00.991Z,1.40
2023-05-03T14:19:00.970Z,1.70
2023-05-03T14:21:29.882Z,1.80
2023-05-03T14:23:58.426Z,1.55
2023-05-03T14:26:26.832Z,1.80
2023-05-03T14:28:55.049Z,1.55
2023-05-03T14:31:23.334Z,1.90
2023-05-03T14:33:52.120Z,1.58
2023-05-03T14:36:20.312Z,1.70
2023-05-03T14:38:48.667Z,2.28
2023-05-03T14:41:17.099Z,2.40
2023-05-03T14:43:45.470Z,3.53
2023-05-03T14:46:13.844Z,6.80
2023-05-03T14:48:42.254Z,8.55
2023-05-03T14:51:10.465Z,8.52
2023-05-03T14:53:38.740Z,6.72
2023-05-03T14:56:07.210Z,7.00
2023-05-03T14:58:35.414Z,3.67
2023-05-03T15:01:03.800Z,3.33
2023-05-03T15:03:32.193Z,2.92
2023-05-03T15:06:01.064Z,2.20
2023-05-03T15:08:29.363Z,2.40
2023-05-03T15:10:57.942Z,2.85
2023-05-03T15:13:26.323Z,2.00
2023-05-03T15:15:55.392Z,2.17
2023-05-03T15:18:24.710Z,2.22
2023-05-03T15:20:53.400Z,2.83
2023-05-03T15:23:21.679Z,2.47
2023-05-03T15:25:49.953Z,2.60
2023-05-03T15:28:18.226Z,1.77
2023-05-03T15:30:46.831Z,1.58
2023-05-03T15:33:15.102Z,1.30
2023-05-03T15:35:43.385Z,1.67
2023-05-03T15:38:11.593Z,1.38
2023-05-03T15:40:40.792Z,1.83
2023-05-03T15:43:09.064Z,1.63
2023-05-03T15:45:37.288Z,1.40
2023-05-03T15:48:05.820Z,1.20
2023-05-03T15:50:34.517Z,1.33
2023-05-03T15:53:02.748Z,1.15
2023-05-03T15:55:31.034Z,2.38
2023-05-03T15:57:59.304Z,1.08
2023-05-03T16:00:28.095Z,1.20
2023-05-03T16:02:58.112Z,1.00
2023-05-03T16:05:27.316Z,1.48
2023-05-03T16:07:55.742Z,1.30
2023-05-03T16:10:24.874Z,1.45
2023-05-03T16:12:53.439Z,1.65
2023-05-03T16:15:21.706Z,1.50
2023-05-03T16:17:50.029Z,1.50
2023-05-03T16:20:18.350Z,1.40
2023-05-03T16:22:48.477Z,1.30
2023-05-03T16:25:17.523Z,1.50
2023-05-03T16:27:46.346Z,1.55
2023-05-03T16:30:15.211Z,1.35
2023-05-03T16:32:43.805Z,1.80
2023-05-03T16:35:12.777Z,1.80
2023-05-03T16:37:42.017Z,1.60
2023-05-03T16:40:11.456Z,1.15
2023-05-03T16:42:41.582Z,1.13
2023-05-03T16:45:13.268Z,0.85
2023-05-03T16:47:41.764Z,1.25
2023-05-03T16:50:10.495Z,1.40
2023-05-03T16:52:43.448Z,0.90
2023-05-03T16:55:13.109Z,0.88
2023-05-03T16:57:41.848Z,0.95
2023-05-03T17:00:11.296Z,1.30
2023-05-03T17:02:40.480Z,1.52
2023-05-03T17:05:10.573Z,1.45
2023-05-03T17:07:41.036Z,1.90
2023-05-03T17:10:09.898Z,18.35
2023-05-03T17:12:39.148Z,25.08
2023-05-03T17:15:08.089Z,30.75
2023-05-03T17:17:36.352Z,33.15
2023-05-03T17:20:05.265Z,27.13
2023-05-03T17:22:33.828Z,17.63
2023-05-03T17:25:02.952Z,10.43
2023-05-03T17:27:31.549Z,7.60
2023-05-03T17:30:00.191Z,5.32
2023-05-03T17:32:28.548Z,5.35
2023-05-03T17:34:57.803Z,4.57
2023-05-03T17:37:26.398Z,7.80
2023-05-03T17:39:54.666Z,8.65
2023-05-03T17:42:23.021Z,6.60
2023-05-03T17:44:54.971Z,7.55
2023-05-03T17:47:25.131Z,6.50
2023-05-03T17:49:53.712Z,5.80
2023-05-03T17:52:22.086Z,5.07
2023-05-03T17:54:52.412Z,4.25
2023-05-03T17:57:20.850Z,3.08
2023-05-03T17:59:49.261Z,2.55
2023-05-03T18:02:18.127Z,2.17
2023-05-03T18:04:47.013Z,2.47
2023-05-03T18:07:15.789Z,1.90
2023-05-03T18:09:44.611Z,1.92
2023-05-03T18:12:14.271Z,1.92
2023-05-03T18:14:42.455Z,1.60
2023-05-03T18:17:10.705Z,1.70
2023-05-03T18:19:43.402Z,1.58
2023-05-03T18:22:12.539Z,1.63
2023-05-03T18:24:40.862Z,1.48
2023-05-03T18:27:09.454Z,2.03
2023-05-03T18:29:37.774Z,1.90
2023-05-03T18:32:07.016Z,1.60
2023-05-03T18:34:37.444Z,1.70
2023-05-03T18:37:05.930Z,1.55
2023-05-03T18:39:34.934Z,1.38
2023-05-03T18:42:03.388Z,1.15
2023-05-03T18:44:32.946Z,1.10
2023-05-03T18:47:02.559Z,1.30
2023-05-03T18:49:31.015Z,2.28
2023-05-03T18:51:59.614Z,1.83
2023-05-03T18:54:27.925Z,1.50
2023-05-03T18:56:56.338Z,1.30
2023-05-03T18:59:24.566Z,1.33
2023-05-03T19:01:53.838Z,1.73
2023-05-03T19:04:22.215Z,1.42
2023-05-03T19:06:51.439Z,1.75
2023-05-03T19:09:20.234Z,1.65
2023-05-03T19:11:51.199Z,1.92
2023-05-03T19:14:19.710Z,3.65
2023-05-03T19:16:48.870Z,1.83
2023-05-03T19:19:17.384Z,1.77
2023-05-03T19:21:45.611Z,1.70
2023-05-03T19:24:15.316Z,1.15
2023-05-03T19:26:43.619Z,1.10
2023-05-03T19:29:11.943Z,1.23
2023-05-03T19:31:40.225Z,1.20
2023-05-03T19:34:11.210Z,1.10
2023-05-03T19:36:42.291Z,1.30
2023-05-03T19:39:14.510Z,1.00
2023-05-03T19:41:44.259Z,1.35
2023-05-03T19:44:13.980Z,1.42
2023-05-03T19:46:42.283Z,1.10
2023-05-03T19:49:10.667Z,1.23
2023-05-03T19:51:39.088Z,1.20
2023-05-03T19:54:07.367Z,1.10
2023-05-03T19:56:35.624Z,1.38
2023-05-03T19:59:03.934Z,0.93
2023-05-03T20:01:32.264Z,0.90
2023-05-03T20:04:00.889Z,1.13
2023-05-03T20:06:29.334Z,0.98
2023-05-03T20:08:57.737Z,0.80
2023-05-03T20:11:26.044Z,1.88
2023-05-03T20:13:54.241Z,0.90
2023-05-03T20:16:22.748Z,1.15
2023-05-03T20:18:51.053Z,1.00
2023-05-03T20:21:19.292Z,0.80
2023-05-03T20:23:49.335Z,1.40
2023-05-03T20:26:19.203Z,1.00
2023-05-03T20:28:47.553Z,0.82
2023-05-03T20:31:15.876Z,0.90
2023-05-03T20:33:44.223Z,1.23
2023-05-03T20:36:16.849Z,1.10
2023-05-03T20:38:46.633Z,1.00
2023-05-03T20:41:15.037Z,1.20
2023-05-03T20:43:43.281Z,1.40
2023-05-03T20:46:11.982Z,1.00
2023-05-03T20:48:40.282Z,0.95
2023-05-03T20:51:09.398Z,0.80
2023-05-03T20:53:37.869Z,0.90
2023-05-03T20:56:07.762Z,1.02
2023-05-03T20:58:36.412Z,0.70
2023-05-03T21:01:05.459Z,0.95
2023-05-03T21:03:34.421Z,1.17
2023-05-03T21:06:02.963Z,1.00
2023-05-03T21:08:31.159Z,1.30
2023-05-03T21:10:59.453Z,0.98
2023-05-03T21:13:28.073Z,1.20
2023-05-03T21:15:56.685Z,1.20
2023-05-03T21:18:25.182Z,1.17
2023-05-03T21:20:56.492Z,1.00
2023-05-03T21:23:25.077Z,0.90
2023-05-03T21:25:55.850Z,1.10
2023-05-03T21:28:24.609Z,0.82
2023-05-03T21:30:54.608Z,1.20
2023-05-03T21:33:23.032Z,0.90
2023-05-03T21:35:51.564Z,1.27
2023-05-03T21:38:19.815Z,1.02
2023-05-03T21:40:48.235Z,0.85
2023-05-03T21:43:16.514Z,0.98
2023-05-03T21:45:47.006Z,1.02
2023-05-03T21:48:15.290Z,0.90
2023-05-03T21:50:44.660Z,1.13
2023-05-03T21:53:13.069Z,0.85
2023-05-03T21:55:41.319Z,1.10
2023-05-03T21:58:09.635Z,0.75
2023-05-03T22:00:39.950Z,0.80
2023-05-03T22:03:08.632Z,1.00
2023-05-03T22:05:41.480Z,0.90
2023-05-03T22:08:12.960Z,0.80
2023-05-03T22:10:41.604Z,1.40
2023-05-03T22:13:10.017Z,1.00
2023-05-03T22:15:38.391Z,1.00
2023-05-03T22:18:06.685Z,1.33
2023-05-03T22:20:34.986Z,0.70
2023-05-03T22:23:03.507Z,0.75
2023-05-03T22:25:32.395Z,1.20
2023-05-03T22:28:00.838Z,2.00
2023-05-03T22:30:29.296Z,2.08
2023-05-03T22:32:57.488Z,2.10
2023-05-03T22:35:25.892Z,2.75
2023-05-03T22:37:54.095Z,1.83
2023-05-03T22:40:22.528Z,2.50
2023-05-03T22:42:50.818Z,1.25
2023-05-03T22:45:19.126Z,1.58
2023-05-03T22:47:47.395Z,1.10
2023-05-03T22:50:16.210Z,1.10
2023-05-03T22:52:44.696Z,1.10
2023-05-03T22:55:13.092Z,0.90
2023-05-03T22:57:41.829Z,1.10
2023-05-03T23:00:11.242Z,1.08
2023-05-03T23:02:39.697Z,1.00
2023-05-03T23:05:08.419Z,1.02
2023-05-03T23:07:36.631Z,1.27
2023-05-03T23:10:06.271Z,1.45
2023-05-03T23:12:34.938Z,1.40
2023-05-03T23:15:03.278Z,1.17
2023-05-03T23:17:31.618Z,1.00
2023-05-03T23:19:59.977Z,1.20
2023-05-03T23:22:28.392Z,1.30
2023-05-03T23:24:56.797Z,1.20
2023-05-03T23:27:25.106Z,1.08
2023-05-03T23:29:53.860Z,1.20
2023-05-03T23:32:22.795Z,1.20
2023-05-03T23:34:51.574Z,1.27
2023-05-03T23:37:19.872Z,1.00
2023-05-03T23:39:48.274Z,1.02
2023-05-03T23:42:16.791Z,1.10
2023-05-03T23:44:54.451Z,1.10
2023-05-03T23:47:24.365Z,1.00
2023-05-03T23:49:52.721Z,1.30
2023-05-03T23:52:21.368Z,1.10
2023-05-03T23:54:49.657Z,1.13
2023-05-03T23:57:17.966Z,0.82
2023-05-03T23:59:46.643Z,0.95
